sensor_id;sensor_type;location;lat;lon;timestamp;P1;durP1;ratioP1;P2;durP2;ratioP2
6145;SDS011;3104;50.348;7.620;2022-12-10T00:02:19;32.93;;;24.00;;
6145;SDS011;3104;50.348;7.620;2022-12-10T00:04:45;19.87;;;14.80;;
6145;SDS011;3104;50.348;7.620;2022-12-10T00:07:10;17.37;;;12.30;;
6145;SDS011;3104;50.348;7.620;2022-12-10T00:09:36;14.87;;;11.43;;
6145;SDS011;3104;50.348;7.620;2022-12-10T00:12:01;14.30;;;11.53;;
6145;SDS011;3104;50.348;7.620;2022-12-10T00:14:27;12.10;;;10.37;;
6145;SDS011;3104;50.348;7.620;2022-12-10T00:16:52;12.60;;;11.30;;
6145;SDS011;3104;50.348;7.620;2022-12-10T00:19:18;16.20;;;12.53;;
6145;SDS011;3104;50.348;7.620;2022-12-10T00:21:43;13.73;;;11.00;;
6145;SDS011;3104;50.348;7.620;2022-12-10T00:24:10;15.80;;;12.60;;
6145;SDS011;3104;50.348;7.620;2022-12-10T00:26:36;12.70;;;11.17;;
6145;SDS011;3104;50.348;7.620;2022-12-10T00:29:03;13.97;;;10.13;;
6145;SDS011;3104;50.348;7.620;2022-12-10T00:31:34;14.87;;;10.90;;
6145;SDS011;3104;50.348;7.620;2022-12-10T00:34:02;16.40;;;13.47;;
6145;SDS011;3104;50.348;7.620;2022-12-10T00:36:48;16.50;;;14.30;;
6145;SDS011;3104;50.348;7.620;2022-12-10T00:39:18;15.07;;;11.27;;
6145;SDS011;3104;50.348;7.620;2022-12-10T00:41:45;12.90;;;11.20;;
6145;SDS011;3104;50.348;7.620;2022-12-10T00:44:11;17.03;;;11.53;;
6145;SDS011;3104;50.348;7.620;2022-12-10T00:46:37;17.23;;;12.13;;
6145;SDS011;3104;50.348;7.620;2022-12-10T00:49:03;16.27;;;12.47;;
6145;SDS011;3104;50.348;7.620;2022-12-10T00:51:29;16.50;;;10.80;;
6145;SDS011;3104;50.348;7.620;2022-12-10T00:53:55;14.83;;;10.13;;
6145;SDS011;3104;50.348;7.620;2022-12-10T00:56:23;13.93;;;11.73;;
6145;SDS011;3104;50.348;7.620;2022-12-10T00:58:51;15.00;;;11.23;;
6145;SDS011;3104;50.348;7.620;2022-12-10T01:01:24;15.13;;;11.87;;
6145;SDS011;3104;50.348;7.620;2022-12-10T01:03:54;16.63;;;12.30;;
6145;SDS011;3104;50.348;7.620;2022-12-10T01:06:23;12.77;;;11.23;;
6145;SDS011;3104;50.348;7.620;2022-12-10T01:08:50;14.53;;;12.17;;
6145;SDS011;3104;50.348;7.620;2022-12-10T01:11:18;14.40;;;12.30;;
6145;SDS011;3104;50.348;7.620;2022-12-10T01:13:45;15.80;;;12.13;;
6145;SDS011;3104;50.348;7.620;2022-12-10T01:16:12;14.33;;;12.80;;
6145;SDS011;3104;50.348;7.620;2022-12-10T01:18:39;14.33;;;11.03;;
6145;SDS011;3104;50.348;7.620;2022-12-10T01:21:10;18.40;;;12.43;;
6145;SDS011;3104;50.348;7.620;2022-12-10T01:23:38;18.13;;;12.10;;
6145;SDS011;3104;50.348;7.620;2022-12-10T01:26:06;15.63;;;13.10;;
6145;SDS011;3104;50.348;7.620;2022-12-10T01:28:34;15.30;;;12.37;;
6145;SDS011;3104;50.348;7.620;2022-12-10T01:31:15;17.63;;;12.97;;
6145;SDS011;3104;50.348;7.620;2022-12-10T01:33:43;15.43;;;11.60;;
6145;SDS011;3104;50.348;7.620;2022-12-10T01:36:19;16.43;;;12.73;;
6145;SDS011;3104;50.348;7.620;2022-12-10T01:38:47;15.23;;;11.87;;
6145;SDS011;3104;50.348;7.620;2022-12-10T01:41:13;14.63;;;11.40;;
6145;SDS011;3104;50.348;7.620;2022-12-10T01:43:49;15.43;;;12.13;;
6145;SDS011;3104;50.348;7.620;2022-12-10T01:46:15;17.73;;;12.10;;
6145;SDS011;3104;50.348;7.620;2022-12-10T01:48:40;15.43;;;11.50;;
6145;SDS011;3104;50.348;7.620;2022-12-10T01:51:06;17.67;;;12.10;;
6145;SDS011;3104;50.348;7.620;2022-12-10T01:53:32;12.63;;;11.33;;
6145;SDS011;3104;50.348;7.620;2022-12-10T01:55:58;16.87;;;13.00;;
6145;SDS011;3104;50.348;7.620;2022-12-10T01:58:24;16.83;;;11.93;;
6145;SDS011;3104;50.348;7.620;2022-12-10T02:03:20;14.73;;;11.93;;
6145;SDS011;3104;50.348;7.620;2022-12-10T02:12:15;14.70;;;12.00;;
6145;SDS011;3104;50.348;7.620;2022-12-10T02:17:15;20.70;;;15.53;;
6145;SDS011;3104;50.348;7.620;2022-12-10T02:22:49;16.47;;;12.73;;
6145;SDS011;3104;50.348;7.620;2022-12-10T02:25:20;14.80;;;13.20;;
6145;SDS011;3104;50.348;7.620;2022-12-10T02:27:54;16.30;;;14.07;;
6145;SDS011;3104;50.348;7.620;2022-12-10T02:30:22;19.03;;;14.33;;
6145;SDS011;3104;50.348;7.620;2022-12-10T02:32:48;17.63;;;14.40;;
6145;SDS011;3104;50.348;7.620;2022-12-10T02:35:16;15.60;;;12.83;;
6145;SDS011;3104;50.348;7.620;2022-12-10T02:40:43;19.93;;;13.90;;
6145;SDS011;3104;50.348;7.620;2022-12-10T02:43:12;17.80;;;13.83;;
6145;SDS011;3104;50.348;7.620;2022-12-10T02:45:39;17.57;;;13.77;;
6145;SDS011;3104;50.348;7.620;2022-12-10T02:48:06;18.40;;;14.30;;
6145;SDS011;3104;50.348;7.620;2022-12-10T02:50:31;17.40;;;14.23;;
6145;SDS011;3104;50.348;7.620;2022-12-10T02:52:58;18.07;;;13.83;;
6145;SDS011;3104;50.348;7.620;2022-12-10T02:55:24;16.80;;;13.30;;
6145;SDS011;3104;50.348;7.620;2022-12-10T03:00:24;19.33;;;12.83;;
6145;SDS011;3104;50.348;7.620;2022-12-10T03:03:05;17.10;;;13.23;;
6145;SDS011;3104;50.348;7.620;2022-12-10T03:08:52;18.23;;;13.03;;
6145;SDS011;3104;50.348;7.620;2022-12-10T03:11:24;19.07;;;14.77;;
6145;SDS011;3104;50.348;7.620;2022-12-10T03:16:18;15.00;;;13.20;;
6145;SDS011;3104;50.348;7.620;2022-12-10T03:18:46;16.63;;;13.23;;
6145;SDS011;3104;50.348;7.620;2022-12-10T03:21:16;17.37;;;13.50;;
6145;SDS011;3104;50.348;7.620;2022-12-10T03:23:43;17.83;;;12.53;;
6145;SDS011;3104;50.348;7.620;2022-12-10T03:26:11;16.10;;;12.53;;
6145;SDS011;3104;50.348;7.620;2022-12-10T03:28:38;18.87;;;14.03;;
6145;SDS011;3104;50.348;7.620;2022-12-10T03:31:09;17.10;;;13.00;;
6145;SDS011;3104;50.348;7.620;2022-12-10T03:33:37;18.33;;;12.93;;
6145;SDS011;3104;50.348;7.620;2022-12-10T03:36:04;15.77;;;13.23;;
6145;SDS011;3104;50.348;7.620;2022-12-10T03:38:31;14.33;;;12.80;;
6145;SDS011;3104;50.348;7.620;2022-12-10T03:40:57;16.87;;;12.60;;
6145;SDS011;3104;50.348;7.620;2022-12-10T03:43:23;14.03;;;12.53;;
6145;SDS011;3104;50.348;7.620;2022-12-10T03:45:48;17.87;;;14.07;;
6145;SDS011;3104;50.348;7.620;2022-12-10T03:48:14;17.97;;;12.17;;
6145;SDS011;3104;50.348;7.620;2022-12-10T03:50:39;18.03;;;13.20;;
6145;SDS011;3104;50.348;7.620;2022-12-10T03:53:05;17.83;;;12.73;;
6145;SDS011;3104;50.348;7.620;2022-12-10T03:55:30;18.50;;;12.97;;
6145;SDS011;3104;50.348;7.620;2022-12-10T03:57:57;16.33;;;12.37;;
6145;SDS011;3104;50.348;7.620;2022-12-10T04:00:23;16.10;;;12.90;;
6145;SDS011;3104;50.348;7.620;2022-12-10T04:02:49;17.53;;;13.17;;
6145;SDS011;3104;50.348;7.620;2022-12-10T04:05:14;19.27;;;12.00;;
6145;SDS011;3104;50.348;7.620;2022-12-10T04:07:40;16.60;;;12.97;;
6145;SDS011;3104;50.348;7.620;2022-12-10T04:10:06;18.10;;;14.20;;
6145;SDS011;3104;50.348;7.620;2022-12-10T04:12:32;15.83;;;12.80;;
6145;SDS011;3104;50.348;7.620;2022-12-10T04:14:57;17.63;;;13.47;;
6145;SDS011;3104;50.348;7.620;2022-12-10T04:17:42;16.77;;;12.97;;
6145;SDS011;3104;50.348;7.620;2022-12-10T04:20:07;17.20;;;12.83;;
6145;SDS011;3104;50.348;7.620;2022-12-10T04:22:53;17.30;;;13.70;;
6145;SDS011;3104;50.348;7.620;2022-12-10T04:25:37;20.53;;;13.87;;
6145;SDS011;3104;50.348;7.620;2022-12-10T04:28:21;21.63;;;14.47;;
6145;SDS011;3104;50.348;7.620;2022-12-10T04:30:47;18.77;;;14.60;;
6145;SDS011;3104;50.348;7.620;2022-12-10T04:33:12;17.23;;;13.13;;
6145;SDS011;3104;50.348;7.620;2022-12-10T04:35:38;16.30;;;13.17;;
6145;SDS011;3104;50.348;7.620;2022-12-10T04:38:03;21.60;;;15.30;;
6145;SDS011;3104;50.348;7.620;2022-12-10T04:40:29;25.00;;;15.30;;
6145;SDS011;3104;50.348;7.620;2022-12-10T04:42:54;22.80;;;15.57;;
6145;SDS011;3104;50.348;7.620;2022-12-10T04:45:20;25.10;;;17.20;;
6145;SDS011;3104;50.348;7.620;2022-12-10T04:47:45;18.83;;;14.43;;
6145;SDS011;3104;50.348;7.620;2022-12-10T04:50:11;20.57;;;13.20;;
6145;SDS011;3104;50.348;7.620;2022-12-10T04:52:37;22.90;;;14.43;;
6145;SDS011;3104;50.348;7.620;2022-12-10T04:55:02;20.17;;;15.50;;
6145;SDS011;3104;50.348;7.620;2022-12-10T04:57:28;18.03;;;13.70;;
6145;SDS011;3104;50.348;7.620;2022-12-10T04:59:54;16.90;;;13.47;;
6145;SDS011;3104;50.348;7.620;2022-12-10T05:02:19;18.33;;;13.97;;
6145;SDS011;3104;50.348;7.620;2022-12-10T05:04:45;19.47;;;14.10;;
6145;SDS011;3104;50.348;7.620;2022-12-10T05:07:12;19.57;;;15.17;;
6145;SDS011;3104;50.348;7.620;2022-12-10T05:09:38;19.03;;;14.50;;
6145;SDS011;3104;50.348;7.620;2022-12-10T05:12:04;19.17;;;14.47;;
6145;SDS011;3104;50.348;7.620;2022-12-10T05:14:29;21.60;;;15.23;;
6145;SDS011;3104;50.348;7.620;2022-12-10T05:16:55;20.17;;;14.90;;
6145;SDS011;3104;50.348;7.620;2022-12-10T05:19:20;21.20;;;15.27;;
6145;SDS011;3104;50.348;7.620;2022-12-10T05:21:48;19.73;;;14.10;;
6145;SDS011;3104;50.348;7.620;2022-12-10T05:24:32;19.20;;;12.90;;
6145;SDS011;3104;50.348;7.620;2022-12-10T05:26:58;18.30;;;13.80;;
6145;SDS011;3104;50.348;7.620;2022-12-10T05:29:24;20.27;;;14.10;;
6145;SDS011;3104;50.348;7.620;2022-12-10T05:31:49;19.43;;;14.07;;
6145;SDS011;3104;50.348;7.620;2022-12-10T05:34:15;19.30;;;15.10;;
6145;SDS011;3104;50.348;7.620;2022-12-10T05:36:40;22.43;;;16.27;;
6145;SDS011;3104;50.348;7.620;2022-12-10T05:39:06;24.17;;;16.13;;
6145;SDS011;3104;50.348;7.620;2022-12-10T05:41:34;19.40;;;14.30;;
6145;SDS011;3104;50.348;7.620;2022-12-10T05:44:01;23.17;;;15.00;;
6145;SDS011;3104;50.348;7.620;2022-12-10T05:46:28;23.60;;;15.90;;
6145;SDS011;3104;50.348;7.620;2022-12-10T05:48:55;22.60;;;16.60;;
6145;SDS011;3104;50.348;7.620;2022-12-10T05:51:25;24.10;;;16.00;;
6145;SDS011;3104;50.348;7.620;2022-12-10T05:53:53;23.23;;;16.77;;
6145;SDS011;3104;50.348;7.620;2022-12-10T05:56:20;26.47;;;17.03;;
6145;SDS011;3104;50.348;7.620;2022-12-10T05:58:47;24.77;;;16.27;;
6145;SDS011;3104;50.348;7.620;2022-12-10T06:01:19;22.20;;;16.30;;
6145;SDS011;3104;50.348;7.620;2022-12-10T06:03:49;23.13;;;15.60;;
6145;SDS011;3104;50.348;7.620;2022-12-10T06:06:19;24.83;;;16.70;;
6145;SDS011;3104;50.348;7.620;2022-12-10T06:08:47;23.80;;;16.30;;
6145;SDS011;3104;50.348;7.620;2022-12-10T06:11:12;24.70;;;15.60;;
6145;SDS011;3104;50.348;7.620;2022-12-10T06:13:38;25.23;;;16.53;;
6145;SDS011;3104;50.348;7.620;2022-12-10T06:16:07;24.73;;;16.73;;
6145;SDS011;3104;50.348;7.620;2022-12-10T06:18:35;27.43;;;16.97;;
6145;SDS011;3104;50.348;7.620;2022-12-10T06:21:05;28.07;;;19.80;;
6145;SDS011;3104;50.348;7.620;2022-12-10T06:23:33;37.93;;;28.83;;
6145;SDS011;3104;50.348;7.620;2022-12-10T06:26:02;31.50;;;20.70;;
6145;SDS011;3104;50.348;7.620;2022-12-10T06:28:33;23.43;;;17.07;;
6145;SDS011;3104;50.348;7.620;2022-12-10T06:30:59;22.67;;;15.40;;
6145;SDS011;3104;50.348;7.620;2022-12-10T06:33:25;27.47;;;15.83;;
6145;SDS011;3104;50.348;7.620;2022-12-10T06:35:51;23.30;;;16.10;;
6145;SDS011;3104;50.348;7.620;2022-12-10T06:38:16;17.47;;;14.50;;
6145;SDS011;3104;50.348;7.620;2022-12-10T06:40:42;22.17;;;15.13;;
6145;SDS011;3104;50.348;7.620;2022-12-10T06:43:08;20.10;;;14.20;;
6145;SDS011;3104;50.348;7.620;2022-12-10T06:45:33;16.47;;;13.00;;
6145;SDS011;3104;50.348;7.620;2022-12-10T06:48:03;19.60;;;15.03;;
6145;SDS011;3104;50.348;7.620;2022-12-10T06:50:29;19.20;;;14.67;;
6145;SDS011;3104;50.348;7.620;2022-12-10T06:52:55;20.23;;;14.57;;
6145;SDS011;3104;50.348;7.620;2022-12-10T06:55:21;17.37;;;13.43;;
6145;SDS011;3104;50.348;7.620;2022-12-10T06:57:46;20.30;;;14.67;;
6145;SDS011;3104;50.348;7.620;2022-12-10T07:00:15;20.07;;;15.80;;
6145;SDS011;3104;50.348;7.620;2022-12-10T07:02:40;19.17;;;13.00;;
6145;SDS011;3104;50.348;7.620;2022-12-10T07:05:06;18.00;;;13.67;;
6145;SDS011;3104;50.348;7.620;2022-12-10T07:07:32;17.63;;;14.03;;
6145;SDS011;3104;50.348;7.620;2022-12-10T07:09:57;18.57;;;13.40;;
6145;SDS011;3104;50.348;7.620;2022-12-10T07:12:23;19.70;;;17.13;;
6145;SDS011;3104;50.348;7.620;2022-12-10T07:14:49;18.60;;;13.80;;
6145;SDS011;3104;50.348;7.620;2022-12-10T07:17:14;21.77;;;15.60;;
6145;SDS011;3104;50.348;7.620;2022-12-10T07:19:40;18.40;;;13.97;;
6145;SDS011;3104;50.348;7.620;2022-12-10T07:22:05;21.67;;;14.50;;
6145;SDS011;3104;50.348;7.620;2022-12-10T07:24:31;20.30;;;16.13;;
6145;SDS011;3104;50.348;7.620;2022-12-10T07:26:56;21.27;;;15.30;;
6145;SDS011;3104;50.348;7.620;2022-12-10T07:29:22;20.17;;;14.50;;
6145;SDS011;3104;50.348;7.620;2022-12-10T07:31:48;20.30;;;13.80;;
6145;SDS011;3104;50.348;7.620;2022-12-10T07:34:14;23.27;;;15.73;;
6145;SDS011;3104;50.348;7.620;2022-12-10T07:36:40;22.87;;;16.07;;
6145;SDS011;3104;50.348;7.620;2022-12-10T07:39:07;19.20;;;16.60;;
6145;SDS011;3104;50.348;7.620;2022-12-10T07:41:33;21.97;;;16.47;;
6145;SDS011;3104;50.348;7.620;2022-12-10T07:44:00;22.90;;;15.87;;
6145;SDS011;3104;50.348;7.620;2022-12-10T07:46:28;23.50;;;15.10;;
6145;SDS011;3104;50.348;7.620;2022-12-10T07:48:55;18.80;;;14.97;;
6145;SDS011;3104;50.348;7.620;2022-12-10T07:51:21;24.50;;;16.20;;
6145;SDS011;3104;50.348;7.620;2022-12-10T07:53:48;21.20;;;14.97;;
6145;SDS011;3104;50.348;7.620;2022-12-10T07:56:16;19.43;;;14.50;;
6145;SDS011;3104;50.348;7.620;2022-12-10T07:58:42;18.00;;;13.80;;
6145;SDS011;3104;50.348;7.620;2022-12-10T08:01:10;17.13;;;12.30;;
6145;SDS011;3104;50.348;7.620;2022-12-10T08:03:37;22.90;;;15.40;;
6145;SDS011;3104;50.348;7.620;2022-12-10T08:06:03;19.50;;;14.30;;
6145;SDS011;3104;50.348;7.620;2022-12-10T08:08:32;25.40;;;15.13;;
6145;SDS011;3104;50.348;7.620;2022-12-10T08:10:59;27.03;;;14.57;;
6145;SDS011;3104;50.348;7.620;2022-12-10T08:13:25;24.37;;;14.80;;
6145;SDS011;3104;50.348;7.620;2022-12-10T08:15:51;28.97;;;15.17;;
6145;SDS011;3104;50.348;7.620;2022-12-10T08:18:16;28.77;;;15.10;;
6145;SDS011;3104;50.348;7.620;2022-12-10T08:20:42;20.77;;;14.20;;
6145;SDS011;3104;50.348;7.620;2022-12-10T08:23:07;23.83;;;14.40;;
6145;SDS011;3104;50.348;7.620;2022-12-10T08:25:33;37.17;;;17.20;;
6145;SDS011;3104;50.348;7.620;2022-12-10T08:28:00;29.63;;;14.67;;
6145;SDS011;3104;50.348;7.620;2022-12-10T08:30:27;34.03;;;16.30;;
6145;SDS011;3104;50.348;7.620;2022-12-10T08:32:53;40.57;;;17.03;;
6145;SDS011;3104;50.348;7.620;2022-12-10T08:35:19;21.37;;;14.87;;
6145;SDS011;3104;50.348;7.620;2022-12-10T08:37:45;20.40;;;14.70;;
6145;SDS011;3104;50.348;7.620;2022-12-10T08:40:10;19.30;;;14.63;;
6145;SDS011;3104;50.348;7.620;2022-12-10T08:42:36;17.27;;;13.70;;
6145;SDS011;3104;50.348;7.620;2022-12-10T08:45:02;18.83;;;13.10;;
6145;SDS011;3104;50.348;7.620;2022-12-10T08:47:27;22.20;;;14.90;;
6145;SDS011;3104;50.348;7.620;2022-12-10T08:49:53;20.73;;;15.07;;
6145;SDS011;3104;50.348;7.620;2022-12-10T08:52:18;20.17;;;13.53;;
6145;SDS011;3104;50.348;7.620;2022-12-10T08:54:44;23.33;;;13.77;;
6145;SDS011;3104;50.348;7.620;2022-12-10T08:57:09;23.23;;;16.00;;
6145;SDS011;3104;50.348;7.620;2022-12-10T08:59:35;16.87;;;12.90;;
6145;SDS011;3104;50.348;7.620;2022-12-10T09:02:00;15.00;;;12.30;;
6145;SDS011;3104;50.348;7.620;2022-12-10T09:04:26;26.20;;;15.90;;
6145;SDS011;3104;50.348;7.620;2022-12-10T09:06:52;16.50;;;14.23;;
6145;SDS011;3104;50.348;7.620;2022-12-10T09:09:17;13.90;;;12.40;;
6145;SDS011;3104;50.348;7.620;2022-12-10T09:11:43;14.57;;;12.47;;
6145;SDS011;3104;50.348;7.620;2022-12-10T09:14:10;18.50;;;14.47;;
6145;SDS011;3104;50.348;7.620;2022-12-10T09:16:36;17.30;;;12.80;;
6145;SDS011;3104;50.348;7.620;2022-12-10T09:19:04;18.17;;;15.53;;
6145;SDS011;3104;50.348;7.620;2022-12-10T09:21:30;16.80;;;12.70;;
6145;SDS011;3104;50.348;7.620;2022-12-10T09:23:56;14.07;;;11.30;;
6145;SDS011;3104;50.348;7.620;2022-12-10T09:26:22;15.20;;;11.17;;
6145;SDS011;3104;50.348;7.620;2022-12-10T09:28:48;16.97;;;14.17;;
6145;SDS011;3104;50.348;7.620;2022-12-10T09:31:15;16.73;;;13.00;;
6145;SDS011;3104;50.348;7.620;2022-12-10T09:33:42;17.20;;;13.00;;
6145;SDS011;3104;50.348;7.620;2022-12-10T09:36:08;15.03;;;12.30;;
6145;SDS011;3104;50.348;7.620;2022-12-10T09:38:36;14.73;;;12.63;;
6145;SDS011;3104;50.348;7.620;2022-12-10T09:44:04;14.27;;;11.77;;
6145;SDS011;3104;50.348;7.620;2022-12-10T09:46:53;13.90;;;12.40;;
6145;SDS011;3104;50.348;7.620;2022-12-10T09:52:39;16.63;;;13.03;;
6145;SDS011;3104;50.348;7.620;2022-12-10T09:55:17;14.23;;;11.37;;
6145;SDS011;3104;50.348;7.620;2022-12-10T09:57:50;14.00;;;12.20;;
6145;SDS011;3104;50.348;7.620;2022-12-10T10:02:45;13.43;;;11.80;;
6145;SDS011;3104;50.348;7.620;2022-12-10T10:05:14;20.83;;;16.77;;
6145;SDS011;3104;50.348;7.620;2022-12-10T10:07:48;14.17;;;12.00;;
6145;SDS011;3104;50.348;7.620;2022-12-10T10:10:21;16.60;;;12.80;;
6145;SDS011;3104;50.348;7.620;2022-12-10T10:15:35;17.60;;;14.17;;
6145;SDS011;3104;50.348;7.620;2022-12-10T10:18:48;17.30;;;14.33;;
6145;SDS011;3104;50.348;7.620;2022-12-10T10:21:05;17.07;;;13.77;;
6145;SDS011;3104;50.348;7.620;2022-12-10T10:23:36;17.10;;;13.60;;
6145;SDS011;3104;50.348;7.620;2022-12-10T10:26:02;19.73;;;13.87;;
6145;SDS011;3104;50.348;7.620;2022-12-10T10:28:28;19.27;;;12.93;;
6145;SDS011;3104;50.348;7.620;2022-12-10T10:30:53;48.10;;;35.63;;
6145;SDS011;3104;50.348;7.620;2022-12-10T10:33:19;20.00;;;14.10;;
6145;SDS011;3104;50.348;7.620;2022-12-10T10:35:49;21.00;;;14.57;;
6145;SDS011;3104;50.348;7.620;2022-12-10T10:38:23;19.63;;;14.47;;
6145;SDS011;3104;50.348;7.620;2022-12-10T10:40:59;16.17;;;12.00;;
6145;SDS011;3104;50.348;7.620;2022-12-10T10:43:39;20.33;;;14.30;;
6145;SDS011;3104;50.348;7.620;2022-12-10T10:46:11;18.70;;;13.70;;
6145;SDS011;3104;50.348;7.620;2022-12-10T10:48:39;21.47;;;15.40;;
6145;SDS011;3104;50.348;7.620;2022-12-10T10:53:48;21.93;;;15.43;;
6145;SDS011;3104;50.348;7.620;2022-12-10T10:56:25;22.73;;;15.50;;
6145;SDS011;3104;50.348;7.620;2022-12-10T10:59:04;21.60;;;14.10;;
6145;SDS011;3104;50.348;7.620;2022-12-10T11:01:48;23.40;;;16.27;;
6145;SDS011;3104;50.348;7.620;2022-12-10T11:04:22;24.83;;;14.27;;
6145;SDS011;3104;50.348;7.620;2022-12-10T11:07:03;25.60;;;16.77;;
6145;SDS011;3104;50.348;7.620;2022-12-10T11:09:32;24.43;;;15.43;;
6145;SDS011;3104;50.348;7.620;2022-12-10T11:11:59;19.07;;;14.97;;
6145;SDS011;3104;50.348;7.620;2022-12-10T11:14:32;27.50;;;17.57;;
6145;SDS011;3104;50.348;7.620;2022-12-10T11:19:36;20.83;;;15.03;;
6145;SDS011;3104;50.348;7.620;2022-12-10T11:22:19;21.40;;;13.83;;
6145;SDS011;3104;50.348;7.620;2022-12-10T11:24:47;24.67;;;16.80;;
6145;SDS011;3104;50.348;7.620;2022-12-10T11:27:16;20.77;;;13.53;;
6145;SDS011;3104;50.348;7.620;2022-12-10T11:33:27;24.20;;;14.83;;
6145;SDS011;3104;50.348;7.620;2022-12-10T11:38:17;15.60;;;12.30;;
6145;SDS011;3104;50.348;7.620;2022-12-10T11:43:57;23.10;;;13.37;;
6145;SDS011;3104;50.348;7.620;2022-12-10T11:52:40;17.80;;;11.73;;
6145;SDS011;3104;50.348;7.620;2022-12-10T11:58:14;19.63;;;14.00;;
6145;SDS011;3104;50.348;7.620;2022-12-10T12:11:31;20.20;;;14.13;;
6145;SDS011;3104;50.348;7.620;2022-12-10T12:14:08;20.40;;;14.23;;
6145;SDS011;3104;50.348;7.620;2022-12-10T12:16:46;21.03;;;15.27;;
6145;SDS011;3104;50.348;7.620;2022-12-10T12:19:38;21.57;;;15.77;;
6145;SDS011;3104;50.348;7.620;2022-12-10T12:22:14;21.37;;;14.33;;
6145;SDS011;3104;50.348;7.620;2022-12-10T12:25:08;19.57;;;14.90;;
6145;SDS011;3104;50.348;7.620;2022-12-10T12:27:46;16.40;;;12.33;;
6145;SDS011;3104;50.348;7.620;2022-12-10T12:30:18;15.27;;;10.60;;
6145;SDS011;3104;50.348;7.620;2022-12-10T12:33:00;18.30;;;11.97;;
6145;SDS011;3104;50.348;7.620;2022-12-10T12:35:36;18.77;;;12.63;;
6145;SDS011;3104;50.348;7.620;2022-12-10T12:38:51;19.40;;;12.00;;
6145;SDS011;3104;50.348;7.620;2022-12-10T12:41:05;13.87;;;10.47;;
6145;SDS011;3104;50.348;7.620;2022-12-10T12:43:49;18.37;;;12.30;;
6145;SDS011;3104;50.348;7.620;2022-12-10T12:46:21;18.70;;;11.07;;
6145;SDS011;3104;50.348;7.620;2022-12-10T12:49:00;17.83;;;11.60;;
6145;SDS011;3104;50.348;7.620;2022-12-10T12:54:59;20.20;;;11.80;;
6145;SDS011;3104;50.348;7.620;2022-12-10T13:00:12;17.20;;;11.73;;
6145;SDS011;3104;50.348;7.620;2022-12-10T13:02:52;24.63;;;14.93;;
6145;SDS011;3104;50.348;7.620;2022-12-10T13:05:26;16.43;;;12.37;;
6145;SDS011;3104;50.348;7.620;2022-12-10T13:10:46;20.00;;;13.17;;
6145;SDS011;3104;50.348;7.620;2022-12-10T13:13:22;19.27;;;13.83;;
6145;SDS011;3104;50.348;7.620;2022-12-10T13:15:49;18.40;;;12.90;;
6145;SDS011;3104;50.348;7.620;2022-12-10T13:28:22;20.37;;;14.30;;
6145;SDS011;3104;50.348;7.620;2022-12-10T13:47:26;20.87;;;16.20;;
6145;SDS011;3104;50.348;7.620;2022-12-10T13:50:14;21.53;;;15.10;;
6145;SDS011;3104;50.348;7.620;2022-12-10T13:55:29;19.30;;;14.40;;
6145;SDS011;3104;50.348;7.620;2022-12-10T14:06:27;20.90;;;15.37;;
6145;SDS011;3104;50.348;7.620;2022-12-10T14:09:08;22.77;;;16.90;;
6145;SDS011;3104;50.348;7.620;2022-12-10T14:14:36;26.87;;;18.70;;
6145;SDS011;3104;50.348;7.620;2022-12-10T14:17:06;25.40;;;16.93;;
6145;SDS011;3104;50.348;7.620;2022-12-10T14:19:47;28.27;;;17.30;;
6145;SDS011;3104;50.348;7.620;2022-12-10T14:22:16;23.90;;;16.60;;
6145;SDS011;3104;50.348;7.620;2022-12-10T14:25:04;25.40;;;15.97;;
6145;SDS011;3104;50.348;7.620;2022-12-10T14:27:35;24.73;;;16.33;;
6145;SDS011;3104;50.348;7.620;2022-12-10T14:30:06;21.53;;;14.93;;
6145;SDS011;3104;50.348;7.620;2022-12-10T14:32:45;24.33;;;13.87;;
6145;SDS011;3104;50.348;7.620;2022-12-10T14:35:22;19.33;;;14.97;;
6145;SDS011;3104;50.348;7.620;2022-12-10T14:37:49;22.27;;;16.13;;
6145;SDS011;3104;50.348;7.620;2022-12-10T14:40:24;20.50;;;16.30;;
6145;SDS011;3104;50.348;7.620;2022-12-10T14:43:20;22.43;;;15.53;;
6145;SDS011;3104;50.348;7.620;2022-12-10T14:45:51;19.17;;;14.70;;
6145;SDS011;3104;50.348;7.620;2022-12-10T14:48:21;21.13;;;14.33;;
6145;SDS011;3104;50.348;7.620;2022-12-10T14:50:47;18.23;;;13.73;;
6145;SDS011;3104;50.348;7.620;2022-12-10T14:53:15;21.00;;;15.53;;
6145;SDS011;3104;50.348;7.620;2022-12-10T14:55:42;21.70;;;14.10;;
6145;SDS011;3104;50.348;7.620;2022-12-10T14:58:11;19.57;;;14.47;;
6145;SDS011;3104;50.348;7.620;2022-12-10T15:00:55;26.43;;;16.43;;
6145;SDS011;3104;50.348;7.620;2022-12-10T15:03:26;21.70;;;14.40;;
6145;SDS011;3104;50.348;7.620;2022-12-10T15:05:55;24.33;;;15.47;;
6145;SDS011;3104;50.348;7.620;2022-12-10T15:08:23;25.03;;;14.37;;
6145;SDS011;3104;50.348;7.620;2022-12-10T15:10:51;19.90;;;14.70;;
6145;SDS011;3104;50.348;7.620;2022-12-10T15:13:24;27.63;;;15.93;;
6145;SDS011;3104;50.348;7.620;2022-12-10T15:16:03;21.60;;;15.03;;
6145;SDS011;3104;50.348;7.620;2022-12-10T15:18:33;23.70;;;16.20;;
6145;SDS011;3104;50.348;7.620;2022-12-10T15:21:04;19.03;;;14.30;;
6145;SDS011;3104;50.348;7.620;2022-12-10T15:23:39;20.10;;;14.60;;
6145;SDS011;3104;50.348;7.620;2022-12-10T15:28:50;22.30;;;15.57;;
6145;SDS011;3104;50.348;7.620;2022-12-10T15:33:59;23.73;;;16.90;;
6145;SDS011;3104;50.348;7.620;2022-12-10T15:41:55;21.97;;;15.33;;
6145;SDS011;3104;50.348;7.620;2022-12-10T15:46:57;21.93;;;15.93;;
6145;SDS011;3104;50.348;7.620;2022-12-10T15:49:28;23.07;;;15.47;;
6145;SDS011;3104;50.348;7.620;2022-12-10T15:51:55;18.90;;;14.13;;
6145;SDS011;3104;50.348;7.620;2022-12-10T15:54:23;17.23;;;13.87;;
6145;SDS011;3104;50.348;7.620;2022-12-10T15:56:55;23.00;;;14.47;;
6145;SDS011;3104;50.348;7.620;2022-12-10T15:59:20;21.03;;;15.63;;
6145;SDS011;3104;50.348;7.620;2022-12-10T16:01:46;20.90;;;15.33;;
6145;SDS011;3104;50.348;7.620;2022-12-10T16:04:12;26.00;;;16.93;;
6145;SDS011;3104;50.348;7.620;2022-12-10T16:06:38;23.50;;;14.57;;
6145;SDS011;3104;50.348;7.620;2022-12-10T16:09:04;22.77;;;15.43;;
6145;SDS011;3104;50.348;7.620;2022-12-10T16:11:30;20.60;;;15.23;;
6145;SDS011;3104;50.348;7.620;2022-12-10T16:13:57;25.03;;;17.50;;
6145;SDS011;3104;50.348;7.620;2022-12-10T16:16:23;26.80;;;17.40;;
6145;SDS011;3104;50.348;7.620;2022-12-10T16:18:49;26.50;;;18.37;;
6145;SDS011;3104;50.348;7.620;2022-12-10T16:21:15;21.87;;;17.60;;
6145;SDS011;3104;50.348;7.620;2022-12-10T16:23:41;26.23;;;18.67;;
6145;SDS011;3104;50.348;7.620;2022-12-10T16:26:20;36.80;;;26.53;;
6145;SDS011;3104;50.348;7.620;2022-12-10T16:28:47;39.60;;;24.27;;
6145;SDS011;3104;50.348;7.620;2022-12-10T16:31:15;37.83;;;24.80;;
6145;SDS011;3104;50.348;7.620;2022-12-10T16:33:42;33.20;;;22.87;;
6145;SDS011;3104;50.348;7.620;2022-12-10T16:36:09;31.37;;;22.27;;
6145;SDS011;3104;50.348;7.620;2022-12-10T16:38:36;26.93;;;19.60;;
6145;SDS011;3104;50.348;7.620;2022-12-10T16:41:02;27.37;;;18.77;;
6145;SDS011;3104;50.348;7.620;2022-12-10T16:43:31;28.43;;;19.60;;
6145;SDS011;3104;50.348;7.620;2022-12-10T16:45:57;29.60;;;21.30;;
6145;SDS011;3104;50.348;7.620;2022-12-10T16:48:23;28.70;;;20.23;;
6145;SDS011;3104;50.348;7.620;2022-12-10T16:50:49;29.73;;;20.33;;
6145;SDS011;3104;50.348;7.620;2022-12-10T16:53:19;26.47;;;19.07;;
6145;SDS011;3104;50.348;7.620;2022-12-10T16:55:51;39.67;;;25.33;;
6145;SDS011;3104;50.348;7.620;2022-12-10T16:58:18;35.63;;;22.70;;
6145;SDS011;3104;50.348;7.620;2022-12-10T17:00:44;26.87;;;18.97;;
6145;SDS011;3104;50.348;7.620;2022-12-10T17:03:11;27.27;;;17.97;;
6145;SDS011;3104;50.348;7.620;2022-12-10T17:05:47;25.60;;;18.27;;
6145;SDS011;3104;50.348;7.620;2022-12-10T17:08:24;23.53;;;16.87;;
6145;SDS011;3104;50.348;7.620;2022-12-10T17:10:50;21.97;;;16.77;;
6145;SDS011;3104;50.348;7.620;2022-12-10T17:13:35;25.17;;;18.03;;
6145;SDS011;3104;50.348;7.620;2022-12-10T17:16:02;23.97;;;17.33;;